0TA1 weather

Buddy Harmel Airport
Halfway, Texas, United States

Public forecast

Using degrees Fahrenheit for public forecast. Weather courtesy of forecast.io.

METAR (pilot weather report)

Closest report is Hale County Airport, 13.4 nm (24.9 km) ESE. Retrieved 2019/09/15 13:35 UTC (3 minutes ago):

KPVW 151335Z AUTO 00000KT 10SM CLR 18/14 A3021 RMK AO2 T01760143

TAF (pilot weather forecast)

Closest forecast is Hale County Airport, 13.4 nm (24.9 km) ESE. Retrieved 2019/09/15 12:22 UTC (1 hour ago):

TAF KPVW 151120Z 1512/1612 18008KT P6SM FEW250